PWSweather.com
Personal Weather Stations
Station Observations
HELOTES
Helotes Park Terrace, Helotes, TX 78023

Helotes Park TerraceHelotes, TX 78023

Lat: 29.57, Lon: -98.68

Elevation: 1060

Station Type: Ambient Weather WS-1090

Latest ConditionsUpdated 2:55:42 PM CDT Wednesday, Jul 29, 2015
Currently Today's Max Today's Min Today's Average
Temperature 97.2°F36.2°C 97.2°F36.2°C 75.2°F24.0°C 82.4°F28.0°C
Dew Point 70.9°F21.6°C 76.7°F24.8°C 68.9°F20.5°C 72.1°F22.3°C
Winds 4.7 mph E7.6 kmh E 7.2 mph SE11.6 kmh SE - 2.6 mph 4.2 kmh
Wind Gusts 7.8 mph12.6 kmh 9.8 mph15.8 kmh - -
Humidity 43% 86% 43% 72%
Pressure 29.93 in1013.5 mb 29.98 in1015.2 mb 29.91 in1012.9 mb -
Hour Temp Dew Point Humidity Winds Wind Gusts Pressure Precip Precip Rate Daily Precip Total
02:55 PM 97.2°F36.2°C 70.9°F21.6°C 43% 4.7 mph E7.6 kmh E 7.8 mph12.6 kmh 29.93 in1013.5 mb 0.00 in0.0 mm 0.00 in0.0 mm 0.00 in0.0 mm
02:50 PM 97.2°F36.2°C 72.9°F22.7°C 46% 6.3 mph NE10.1 kmh NE 6.3 mph10.1 kmh 29.93 in1013.5 mb 0.00 in0.0 mm 0.00 in0.0 mm 0.00 in0.0 mm
02:45 PM 97.2°F36.2°C 72.9°F22.7°C 46% 6.3 mph NE10.1 kmh NE 6.3 mph10.1 kmh 29.93 in1013.5 mb 0.00 in0.0 mm 0.00 in0.0 mm 0.00 in0.0 mm
02:40 PM 97.2°F36.2°C 72.9°F22.7°C 46% 6.3 mph NE10.1 kmh NE 6.3 mph10.1 kmh 29.94 in1013.9 mb 0.00 in0.0 mm 0.00 in0.0 mm 0.00 in0.0 mm
02:35 PM 97.2°F36.2°C 72.9°F22.7°C 46% 4.1 mph NE6.6 kmh NE 6.3 mph10.1 kmh 29.94 in1013.9 mb 0.00 in0.0 mm 0.00 in0.0 mm 0.00 in0.0 mm
02:30 PM 96.8°F36.0°C 73.3°F22.9°C 47% 2.5 mph ENE4.0 kmh ENE 2.5 mph4.0 kmh 29.94 in1013.9 mb 0.00 in0.0 mm 0.00 in0.0 mm 0.00 in0.0 mm
02:25 PM 96.8°F36.0°C 73.3°F22.9°C 47% 2.5 mph ENE4.0 kmh ENE 2.5 mph4.0 kmh 29.94 in1013.9 mb 0.00 in0.0 mm 0.00 in0.0 mm 0.00 in0.0 mm
02:20 PM 96.8°F36.0°C 73.3°F22.9°C 47% 2.5 mph ENE4.0 kmh ENE 6.3 mph10.1 kmh 29.94 in1013.9 mb 0.00 in0.0 mm 0.00 in0.0 mm 0.00 in0.0 mm
02:15 PM 96.8°F36.0°C 73.3°F22.9°C 47% 5.1 mph SE8.2 kmh SE 8.1 mph13.0 kmh 29.95 in1014.2 mb 0.00 in0.0 mm 0.00 in0.0 mm 0.00 in0.0 mm
02:10 PM 96.5°F35.8°C 74.3°F23.5°C 49% 4.0 mph ESE6.4 kmh ESE 8.1 mph13.0 kmh 29.95 in1014.2 mb 0.00 in0.0 mm 0.00 in0.0 mm 0.00 in0.0 mm
02:05 PM 96.1°F35.6°C 74.6°F23.7°C 50% 6.5 mph NE10.5 kmh NE 6.5 mph10.5 kmh 29.95 in1014.2 mb 0.00 in0.0 mm 0.00 in0.0 mm 0.00 in0.0 mm
02:00 PM 96.1°F35.6°C 74.6°F23.7°C 50% 6.5 mph NE10.5 kmh NE 6.5 mph10.5 kmh 29.96 in1014.6 mb 0.00 in0.0 mm 0.00 in0.0 mm 0.00 in0.0 mm
01:55 PM 96.1°F35.6°C 74.6°F23.7°C 50% 6.5 mph NE10.5 kmh NE 6.5 mph10.5 kmh 29.96 in1014.6 mb 0.00 in0.0 mm 0.00 in0.0 mm 0.00 in0.0 mm
01:50 PM 96.1°F35.6°C 74.6°F23.7°C 50% 5.0 mph NE8.0 kmh NE 6.5 mph10.5 kmh 29.96 in1014.6 mb 0.00 in0.0 mm 0.00 in0.0 mm 0.00 in0.0 mm
01:45 PM 96.1°F35.6°C 74.6°F23.7°C 50% 2.2 mph SSE3.5 kmh SSE 6.0 mph9.7 kmh 29.96 in1014.6 mb 0.00 in0.0 mm 0.00 in0.0 mm 0.00 in0.0 mm
01:40 PM 95.8°F35.4°C 74.8°F23.8°C 51% 2.5 mph NE4.0 kmh NE 6.0 mph9.7 kmh 29.96 in1014.6 mb 0.00 in0.0 mm 0.00 in0.0 mm 0.00 in0.0 mm
01:35 PM 95.6°F35.3°C 74.1°F23.4°C 50% 5.4 mph SSE8.7 kmh SSE 6.9 mph11.1 kmh 29.96 in1014.6 mb 0.00 in0.0 mm 0.00 in0.0 mm 0.00 in0.0 mm
01:30 PM 95.4°F35.2°C 74.5°F23.6°C 51% 3.5 mph SE5.6 kmh SE 6.9 mph11.1 kmh 29.96 in1014.6 mb 0.00 in0.0 mm 0.00 in0.0 mm 0.00 in0.0 mm
01:25 PM 95.9°F35.5°C 75.0°F23.9°C 51% 6.9 mph ENE11.1 kmh ENE 6.9 mph11.1 kmh 29.96 in1014.6 mb 0.00 in0.0 mm 0.00 in0.0 mm 0.00 in0.0 mm
01:20 PM 95.9°F35.5°C 75.5°F24.2°C 52% 2.5 mph E4.0 kmh E 6.0 mph9.7 kmh 29.96 in1014.6 mb 0.00 in0.0 mm 0.00 in0.0 mm 0.00 in0.0 mm
01:15 PM 94.5°F34.7°C 75.8°F24.3°C 55% 6.0 mph NE9.7 kmh NE 6.0 mph9.7 kmh 29.96 in1014.6 mb 0.00 in0.0 mm 0.00 in0.0 mm 0.00 in0.0 mm
01:10 PM 94.5°F34.7°C 75.8°F24.3°C 55% 6.0 mph NE9.7 kmh NE 6.0 mph9.7 kmh 29.96 in1014.6 mb 0.00 in0.0 mm 0.00 in0.0 mm 0.00 in0.0 mm
01:05 PM 94.5°F34.7°C 75.8°F24.3°C 55% 6.0 mph NE9.7 kmh NE 6.7 mph10.8 kmh 29.97 in1014.9 mb 0.00 in0.0 mm 0.00 in0.0 mm 0.00 in0.0 mm
01:00 PM 94.1°F34.5°C 76.1°F24.5°C 56% 4.5 mph E7.2 kmh E 6.7 mph10.8 kmh 29.97 in1014.9 mb 0.00 in0.0 mm 0.00 in0.0 mm 0.00 in0.0 mm
12:55 PM 92.9°F33.8°C 76.0°F24.4°C 58% 2.5 mph SSE4.0 kmh SSE 2.5 mph4.0 kmh 29.97 in1014.9 mb 0.00 in0.0 mm 0.00 in0.0 mm 0.00 in0.0 mm
12:50 PM 92.9°F33.8°C 76.0°F24.4°C 58% 2.5 mph SSE4.0 kmh SSE 7.6 mph12.2 kmh 29.97 in1014.9 mb 0.00 in0.0 mm 0.00 in0.0 mm 0.00 in0.0 mm
12:45 PM 92.9°F33.8°C 76.0°F24.4°C 58% 2.5 mph SSE4.0 kmh SSE 7.6 mph12.2 kmh 29.97 in1014.9 mb 0.00 in0.0 mm 0.00 in0.0 mm 0.00 in0.0 mm
12:40 PM 92.9°F33.8°C 76.0°F24.4°C 58% 5.8 mph S9.3 kmh S 7.6 mph12.2 kmh 29.97 in1014.9 mb 0.00 in0.0 mm 0.00 in0.0 mm 0.00 in0.0 mm
12:35 PM 92.3°F33.5°C 75.4°F24.1°C 58% 3.6 mph NNE5.8 kmh NNE 7.2 mph11.6 kmh 29.97 in1014.9 mb 0.00 in0.0 mm 0.00 in0.0 mm 0.00 in0.0 mm
12:30 PM 92.2°F33.4°C 75.8°F24.3°C 59% 6.2 mph SE10.0 kmh SE 7.2 mph11.6 kmh 29.97 in1014.9 mb 0.00 in0.0 mm 0.00 in0.0 mm 0.00 in0.0 mm
12:25 PM 91.4°F33.0°C 76.1°F24.5°C 61% 7.2 mph SE11.6 kmh SE 7.2 mph11.6 kmh 29.97 in1014.9 mb 0.00 in0.0 mm 0.00 in0.0 mm 0.00 in0.0 mm
12:20 PM 91.1°F32.8°C 75.8°F24.3°C 61% 5.4 mph SE8.7 kmh SE 5.8 mph9.3 kmh 29.97 in1014.9 mb 0.00 in0.0 mm 0.00 in0.0 mm 0.00 in0.0 mm
12:15 PM 90.7°F32.6°C 76.3°F24.6°C 63% 5.1 mph SE8.2 kmh SE 5.1 mph8.2 kmh 29.97 in1014.9 mb 0.00 in0.0 mm 0.00 in0.0 mm 0.00 in0.0 mm
12:10 PM 90.5°F32.5°C 76.7°F24.8°C 64% 3.7 mph NNE6.0 kmh NNE 4.0 mph6.4 kmh 29.97 in1014.9 mb 0.00 in0.0 mm 0.00 in0.0 mm 0.00 in0.0 mm
12:05 PM 90.4°F32.4°C 76.5°F24.7°C 64% 2.6 mph NE4.2 kmh NE 4.0 mph6.4 kmh 29.97 in1014.9 mb 0.00 in0.0 mm 0.00 in0.0 mm 0.00 in0.0 mm
12:00 PM 89.6°F32.0°C 76.3°F24.6°C 65% 4.0 mph NE6.4 kmh NE 9.8 mph15.8 kmh 29.97 in1014.9 mb 0.00 in0.0 mm 0.00 in0.0 mm 0.00 in0.0 mm
11:55 AM 89.3°F31.8°C 76.4°F24.7°C 66% 5.2 mph E8.4 kmh E 9.8 mph15.8 kmh 29.98 in1015.2 mb 0.00 in0.0 mm 0.00 in0.0 mm 0.00 in0.0 mm
11:50 AM 88.9°F31.6°C 76.2°F24.6°C 66% 3.4 mph ESE5.5 kmh ESE 4.7 mph7.6 kmh 29.98 in1015.2 mb 0.00 in0.0 mm 0.00 in0.0 mm 0.00 in0.0 mm
11:45 AM 88.9°F31.6°C 76.6°F24.8°C 67% 2.5 mph E4.0 kmh E 4.7 mph7.6 kmh 29.98 in1015.2 mb 0.00 in0.0 mm 0.00 in0.0 mm 0.00 in0.0 mm
11:40 AM 88.7°F31.5°C 76.4°F24.7°C 67% 2.9 mph SE4.7 kmh SE 4.7 mph7.6 kmh 29.98 in1015.2 mb 0.00 in0.0 mm 0.00 in0.0 mm 0.00 in0.0 mm
11:35 AM 88.6°F31.4°C 76.2°F24.6°C 67% 2.7 mph E4.3 kmh E 3.4 mph5.5 kmh 29.98 in1015.2 mb 0.00 in0.0 mm 0.00 in0.0 mm 0.00 in0.0 mm
11:30 AM 88.4°F31.3°C 76.1°F24.5°C 67% 3.4 mph ENE5.5 kmh ENE 3.4 mph5.5 kmh 29.98 in1015.2 mb 0.00 in0.0 mm 0.00 in0.0 mm 0.00 in0.0 mm
11:25 AM 88.2°F31.2°C 76.3°F24.6°C 68% 2.5 mph SE4.0 kmh SE 4.7 mph7.6 kmh 29.97 in1014.9 mb 0.00 in0.0 mm 0.00 in0.0 mm 0.00 in0.0 mm
11:20 AM 87.5°F30.8°C 76.1°F24.5°C 69% 2.7 mph ESE4.3 kmh ESE 4.7 mph7.6 kmh 29.98 in1015.2 mb 0.00 in0.0 mm 0.00 in0.0 mm 0.00 in0.0 mm
11:15 AM 87.3°F30.7°C 76.4°F24.7°C 70% 3.1 mph SE5.0 kmh SE 4.7 mph7.6 kmh 29.98 in1015.2 mb 0.00 in0.0 mm 0.00 in0.0 mm 0.00 in0.0 mm
11:10 AM 86.6°F30.3°C 76.2°F24.6°C 71% 4.0 mph S6.4 kmh S 4.0 mph6.4 kmh 29.98 in1015.2 mb 0.00 in0.0 mm 0.00 in0.0 mm 0.00 in0.0 mm
11:05 AM 86.2°F30.1°C 75.8°F24.3°C 71% 3.6 mph NNE5.8 kmh NNE 3.6 mph5.8 kmh 29.97 in1014.9 mb 0.00 in0.0 mm 0.00 in0.0 mm 0.00 in0.0 mm
11:00 AM 86.0°F30.0°C 76.1°F24.5°C 72% 2.0 mph E3.2 kmh E 4.0 mph6.4 kmh 29.97 in1014.9 mb 0.00 in0.0 mm 0.00 in0.0 mm 0.00 in0.0 mm
10:55 AM 85.7°F29.8°C 75.7°F24.3°C 72% 1.6 mph ENE2.6 kmh ENE 5.1 mph8.2 kmh 29.97 in1014.9 mb 0.00 in0.0 mm 0.00 in0.0 mm 0.00 in0.0 mm
10:50 AM 85.3°F29.6°C 75.7°F24.3°C 73% 4.1 mph ESE6.6 kmh ESE 5.1 mph8.2 kmh 29.98 in1015.2 mb 0.00 in0.0 mm 0.00 in0.0 mm 0.00 in0.0 mm
10:45 AM 85.0°F29.4°C 75.8°F24.3°C 74% 4.1 mph ENE6.6 kmh ENE 5.1 mph8.2 kmh 29.98 in1015.2 mb 0.00 in0.0 mm 0.00 in0.0 mm 0.00 in0.0 mm
10:40 AM 84.2°F29.0°C 75.4°F24.1°C 75% 2.5 mph E4.0 kmh E 2.7 mph4.3 kmh 29.98 in1015.2 mb 0.00 in0.0 mm 0.00 in0.0 mm 0.00 in0.0 mm
10:35 AM 83.9°F28.8°C 75.1°F23.9°C 75% 1.8 mph NE2.9 kmh NE 3.4 mph5.5 kmh 29.97 in1014.9 mb 0.00 in0.0 mm 0.00 in0.0 mm 0.00 in0.0 mm
10:30 AM 83.7°F28.7°C 75.3°F24.1°C 76% 3.1 mph ENE5.0 kmh ENE 3.4 mph5.5 kmh 29.97 in1014.9 mb 0.00 in0.0 mm 0.00 in0.0 mm 0.00 in0.0 mm
10:25 AM 83.3°F28.5°C 75.0°F23.9°C 76% 1.1 mph E1.8 kmh E 3.4 mph5.5 kmh 29.97 in1014.9 mb 0.00 in0.0 mm 0.00 in0.0 mm 0.00 in0.0 mm
10:20 AM 83.2°F28.4°C 75.3°F24.1°C 77% 3.4 mph SE5.5 kmh SE 4.7 mph7.6 kmh 29.98 in1015.2 mb 0.00 in0.0 mm 0.00 in0.0 mm 0.00 in0.0 mm
10:15 AM 83.0°F28.3°C 75.1°F23.9°C 77% 1.6 mph E2.6 kmh E 4.7 mph7.6 kmh 29.97 in1014.9 mb 0.00 in0.0 mm 0.00 in0.0 mm 0.00 in0.0 mm
10:10 AM 82.6°F28.1°C 75.2°F24.0°C 78% 2.6 mph E4.2 kmh E 4.7 mph7.6 kmh 29.97 in1014.9 mb 0.00 in0.0 mm 0.00 in0.0 mm 0.00 in0.0 mm
10:05 AM 82.3°F27.9°C 74.8°F23.8°C 78% 3.4 mph SSE5.5 kmh SSE 4.3 mph6.9 kmh 29.97 in1014.9 mb 0.00 in0.0 mm 0.00 in0.0 mm 0.00 in0.0 mm
10:00 AM 81.9°F27.7°C 74.8°F23.8°C 79% 3.4 mph NE5.5 kmh NE 4.3 mph6.9 kmh 29.97 in1014.9 mb 0.00 in0.0 mm 0.00 in0.0 mm 0.00 in0.0 mm
09:55 AM 81.7°F27.6°C 74.6°F23.7°C 79% 3.2 mph ESE5.1 kmh ESE 4.3 mph6.9 kmh 29.97 in1014.9 mb 0.00 in0.0 mm 0.00 in0.0 mm 0.00 in0.0 mm
09:50 AM 81.2°F27.3°C 74.5°F23.6°C 80% 2.9 mph ESE4.7 kmh ESE 4.3 mph6.9 kmh 29.97 in1014.9 mb 0.00 in0.0 mm 0.00 in0.0 mm 0.00 in0.0 mm
09:45 AM 81.0°F27.2°C 74.0°F23.3°C 79% 2.3 mph SE3.7 kmh SE 4.5 mph7.2 kmh 29.97 in1014.9 mb 0.00 in0.0 mm 0.00 in0.0 mm 0.00 in0.0 mm
09:40 AM 80.6°F27.0°C 74.0°F23.3°C 80% 2.6 mph E4.2 kmh E 4.5 mph7.2 kmh 29.97 in1014.9 mb 0.00 in0.0 mm 0.00 in0.0 mm 0.00 in0.0 mm
09:35 AM 80.3°F26.8°C 74.0°F23.3°C 81% 4.5 mph ESE7.2 kmh ESE 4.5 mph7.2 kmh 29.97 in1014.9 mb 0.00 in0.0 mm 0.00 in0.0 mm 0.00 in0.0 mm
09:30 AM 80.3°F26.8°C 74.0°F23.3°C 81% 2.0 mph ESE3.2 kmh ESE 2.2 mph3.5 kmh 29.97 in1014.9 mb 0.00 in0.0 mm 0.00 in0.0 mm 0.00 in0.0 mm
09:25 AM 79.9°F26.6°C 73.6°F23.1°C 81% 2.2 mph ENE3.5 kmh ENE 2.5 mph4.0 kmh 29.97 in1014.9 mb 0.00 in0.0 mm 0.00 in0.0 mm 0.00 in0.0 mm
09:20 AM 79.6°F26.4°C 73.6°F23.1°C 82% 1.1 mph E1.8 kmh E 3.4 mph5.5 kmh 29.97 in1014.9 mb 0.00 in0.0 mm 0.00 in0.0 mm 0.00 in0.0 mm
09:15 AM 79.6°F26.4°C 73.6°F23.1°C 82% 2.8 mph E4.5 kmh E 4.0 mph6.4 kmh 29.97 in1014.9 mb 0.00 in0.0 mm 0.00 in0.0 mm 0.00 in0.0 mm
09:10 AM 79.2°F26.2°C 73.6°F23.1°C 83% 4.0 mph ESE6.4 kmh ESE 4.0 mph6.4 kmh 29.97 in1014.9 mb 0.00 in0.0 mm 0.00 in0.0 mm 0.00 in0.0 mm
09:05 AM 78.8°F26.0°C 73.3°F22.9°C 83% 2.2 mph ENE3.5 kmh ENE 4.5 mph7.2 kmh 29.96 in1014.6 mb 0.00 in0.0 mm 0.00 in0.0 mm 0.00 in0.0 mm
09:00 AM 78.8°F26.0°C 73.3°F22.9°C 83% 3.1 mph E5.0 kmh E 4.5 mph7.2 kmh 29.96 in1014.6 mb 0.00 in0.0 mm 0.00 in0.0 mm 0.00 in0.0 mm
08:55 AM 78.5°F25.8°C 72.9°F22.7°C 83% 2.8 mph ENE4.5 kmh ENE 4.5 mph7.2 kmh 29.96 in1014.6 mb 0.00 in0.0 mm 0.00 in0.0 mm 0.00 in0.0 mm
08:50 AM 78.3°F25.7°C 73.1°F22.8°C 84% 1.8 mph SE2.9 kmh SE 1.8 mph2.9 kmh 29.96 in1014.6 mb 0.00 in0.0 mm 0.00 in0.0 mm 0.00 in0.0 mm
08:45 AM 78.3°F25.7°C 73.1°F22.8°C 84% 1.6 mph NE2.6 kmh NE 2.5 mph4.0 kmh 29.96 in1014.6 mb 0.00 in0.0 mm 0.00 in0.0 mm 0.00 in0.0 mm
08:40 AM 78.3°F25.7°C 73.1°F22.8°C 84% 2.4 mph NE3.9 kmh NE 4.3 mph6.9 kmh 29.96 in1014.6 mb 0.00 in0.0 mm 0.00 in0.0 mm 0.00 in0.0 mm
08:35 AM 78.1°F25.6°C 73.3°F22.9°C 85% 2.5 mph NNE4.0 kmh NNE 4.3 mph6.9 kmh 29.95 in1014.2 mb 0.00 in0.0 mm 0.00 in0.0 mm 0.00 in0.0 mm
08:30 AM 77.8°F25.4°C 72.9°F22.7°C 85% 3.8 mph ENE6.1 kmh ENE 4.3 mph6.9 kmh 29.95 in1014.2 mb 0.00 in0.0 mm 0.00 in0.0 mm 0.00 in0.0 mm
08:25 AM 77.8°F25.4°C 72.9°F22.7°C 85% 2.7 mph NNE4.3 kmh NNE 3.1 mph5.0 kmh 29.95 in1014.2 mb 0.00 in0.0 mm 0.00 in0.0 mm 0.00 in0.0 mm
08:20 AM 77.2°F25.1°C 72.7°F22.6°C 86% 0.4 mph NE0.6 kmh NE 2.7 mph4.3 kmh 29.94 in1013.9 mb 0.00 in0.0 mm 0.00 in0.0 mm 0.00 in0.0 mm
08:15 AM 76.9°F24.9°C 72.4°F22.4°C 86% 2.7 mph NE4.3 kmh NE 2.7 mph4.3 kmh 29.94 in1013.9 mb 0.00 in0.0 mm 0.00 in0.0 mm 0.00 in0.0 mm
08:10 AM 76.7°F24.8°C 72.2°F22.3°C 86% 2.5 mph ENE4.0 kmh ENE 2.5 mph4.0 kmh 29.94 in1013.9 mb 0.00 in0.0 mm 0.00 in0.0 mm 0.00 in0.0 mm
08:05 AM 76.1°F24.5°C 71.6°F22.0°C 86% 1.3 mph E2.1 kmh E 1.3 mph2.1 kmh 29.94 in1013.9 mb 0.00 in0.0 mm 0.00 in0.0 mm 0.00 in0.0 mm
08:00 AM 76.0°F24.4°C 71.5°F21.9°C 86% 1.0 mph E1.6 kmh E 1.3 mph2.1 kmh 29.94 in1013.9 mb 0.00 in0.0 mm 0.00 in0.0 mm 0.00 in0.0 mm
07:55 AM 76.0°F24.4°C 71.5°F21.9°C 86% 1.2 mph E1.9 kmh E 1.3 mph2.1 kmh 29.94 in1013.9 mb 0.00 in0.0 mm 0.00 in0.0 mm 0.00 in0.0 mm
07:50 AM 75.8°F24.3°C 71.4°F21.9°C 86% 1.2 mph E1.9 kmh E 1.3 mph2.1 kmh 29.94 in1013.9 mb 0.00 in0.0 mm 0.00 in0.0 mm 0.00 in0.0 mm
07:45 AM 75.6°F24.2°C 70.8°F21.6°C 85% 0.4 mph ESE0.6 kmh ESE 1.8 mph2.9 kmh 29.94 in1013.9 mb 0.00 in0.0 mm 0.00 in0.0 mm 0.00 in0.0 mm
07:40 AM 75.4°F24.1°C 70.7°F21.5°C 85% 1.1 mph ESE1.8 kmh ESE 1.8 mph2.9 kmh 29.94 in1013.9 mb 0.00 in0.0 mm 0.00 in0.0 mm 0.00 in0.0 mm
07:35 AM 75.4°F24.1°C 70.7°F21.5°C 85% 1.4 mph E2.3 kmh E 1.8 mph2.9 kmh 29.94 in1013.9 mb 0.00 in0.0 mm 0.00 in0.0 mm 0.00 in0.0 mm
07:30 AM 75.2°F24.0°C 70.5°F21.4°C 85% 0.9 mph ESE1.4 kmh ESE 0.9 mph1.4 kmh 29.94 in1013.9 mb 0.00 in0.0 mm 0.00 in0.0 mm 0.00 in0.0 mm
07:25 AM 75.2°F24.0°C 70.5°F21.4°C 85% 0.4 mph ESE0.6 kmh ESE 0.7 mph1.1 kmh 29.93 in1013.5 mb 0.00 in0.0 mm 0.00 in0.0 mm 0.00 in0.0 mm
07:20 AM 75.2°F24.0°C 70.5°F21.4°C 85% 0.3 mph ESE0.5 kmh ESE 0.7 mph1.1 kmh 29.93 in1013.5 mb 0.00 in0.0 mm 0.00 in0.0 mm 0.00 in0.0 mm
07:15 AM 75.2°F24.0°C 70.5°F21.4°C 85% 0.7 mph ESE1.1 kmh ESE 0.7 mph1.1 kmh 29.93 in1013.5 mb 0.00 in0.0 mm 0.00 in0.0 mm 0.00 in0.0 mm
07:10 AM 75.4°F24.1°C 70.7°F21.5°C 85% Calm Calm 0.9 mph1.4 kmh 29.93 in1013.5 mb 0.00 in0.0 mm 0.00 in0.0 mm 0.00 in0.0 mm
07:05 AM 75.2°F24.0°C 70.5°F21.4°C 85% 0.7 mph ESE1.1 kmh ESE 1.3 mph2.1 kmh 29.93 in1013.5 mb 0.00 in0.0 mm 0.00 in0.0 mm 0.00 in0.0 mm
07:00 AM 75.2°F24.0°C 70.5°F21.4°C 85% 0.9 mph ESE1.4 kmh ESE 1.3 mph2.1 kmh 29.92 in1013.2 mb 0.00 in0.0 mm 0.00 in0.0 mm 0.00 in0.0 mm
06:55 AM 75.2°F24.0°C 70.5°F21.4°C 85% 1.2 mph ESE1.9 kmh ESE 1.3 mph2.1 kmh 29.93 in1013.5 mb 0.00 in0.0 mm 0.00 in0.0 mm 0.00 in0.0 mm
06:50 AM 75.2°F24.0°C 70.1°F21.2°C 84% Calm Calm 0.9 mph1.4 kmh 29.93 in1013.5 mb 0.00 in0.0 mm 0.00 in0.0 mm 0.00 in0.0 mm
06:45 AM 75.2°F24.0°C 70.1°F21.2°C 84% 0.4 mph E0.6 kmh E 0.9 mph1.4 kmh 29.92 in1013.2 mb 0.00 in0.0 mm 0.00 in0.0 mm 0.00 in0.0 mm
06:40 AM 75.4°F24.1°C 70.3°F21.3°C 84% 0.8 mph E1.3 kmh E 0.9 mph1.4 kmh 29.92 in1013.2 mb 0.00 in0.0 mm 0.00 in0.0 mm 0.00 in0.0 mm
06:35 AM 75.4°F24.1°C 70.3°F21.3°C 84% 0.2 mph E0.3 kmh E 0.9 mph1.4 kmh 29.92 in1013.2 mb 0.00 in0.0 mm 0.00 in0.0 mm 0.00 in0.0 mm
06:30 AM 75.4°F24.1°C 70.3°F21.3°C 84% Calm Calm 0.9 mph1.4 kmh 29.92 in1013.2 mb 0.00 in0.0 mm 0.00 in0.0 mm 0.00 in0.0 mm
06:25 AM 75.6°F24.2°C 70.1°F21.2°C 83% 0.9 mph E1.4 kmh E 1.1 mph1.8 kmh 29.92 in1013.2 mb 0.00 in0.0 mm 0.00 in0.0 mm 0.00 in0.0 mm
06:20 AM 75.6°F24.2°C 70.1°F21.2°C 83% 1.1 mph ESE1.8 kmh ESE 1.8 mph2.9 kmh 29.92 in1013.2 mb 0.00 in0.0 mm 0.00 in0.0 mm 0.00 in0.0 mm
06:15 AM 75.6°F24.2°C 70.1°F21.2°C 83% 1.8 mph ESE2.9 kmh ESE 1.8 mph2.9 kmh 29.92 in1013.2 mb 0.00 in0.0 mm 0.00 in0.0 mm 0.00 in0.0 mm
06:10 AM 75.6°F24.2°C 70.1°F21.2°C 83% 0.9 mph SE1.4 kmh SE 1.1 mph1.8 kmh 29.92 in1013.2 mb 0.00 in0.0 mm 0.00 in0.0 mm 0.00 in0.0 mm
06:05 AM 75.8°F24.3°C 70.3°F21.3°C 83% 1.1 mph SE1.8 kmh SE 1.1 mph1.8 kmh 29.92 in1013.2 mb 0.00 in0.0 mm 0.00 in0.0 mm 0.00 in0.0 mm
06:00 AM 75.8°F24.3°C 70.3°F21.3°C 83% 0.5 mph SE0.8 kmh SE 0.9 mph1.4 kmh 29.92 in1013.2 mb 0.00 in0.0 mm 0.00 in0.0 mm 0.00 in0.0 mm
05:55 AM 75.8°F24.3°C 70.3°F21.3°C 83% 0.4 mph SE0.6 kmh SE 0.9 mph1.4 kmh 29.92 in1013.2 mb 0.00 in0.0 mm 0.00 in0.0 mm 0.00 in0.0 mm
05:50 AM 76.0°F24.4°C 70.5°F21.4°C 83% 0.4 mph ESE0.6 kmh ESE 2.0 mph3.2 kmh 29.92 in1013.2 mb 0.00 in0.0 mm 0.00 in0.0 mm 0.00 in0.0 mm
05:45 AM 76.0°F24.4°C 70.5°F21.4°C 83% 1.1 mph SE1.8 kmh SE 2.2 mph3.5 kmh 29.92 in1013.2 mb 0.00 in0.0 mm 0.00 in0.0 mm 0.00 in0.0 mm
05:40 AM 76.0°F24.4°C 70.5°F21.4°C 83% 2.0 mph ESE3.2 kmh ESE 2.2 mph3.5 kmh 29.92 in1013.2 mb 0.00 in0.0 mm 0.00 in0.0 mm 0.00 in0.0 mm
05:35 AM 76.0°F24.4°C 70.1°F21.2°C 82% 1.2 mph E1.9 kmh E 2.2 mph3.5 kmh 29.92 in1013.2 mb 0.00 in0.0 mm 0.00 in0.0 mm 0.00 in0.0 mm
05:30 AM 76.0°F24.4°C 70.1°F21.2°C 82% 1.1 mph ESE1.8 kmh ESE 1.1 mph1.8 kmh 29.92 in1013.2 mb 0.00 in0.0 mm 0.00 in0.0 mm 0.00 in0.0 mm
05:25 AM 76.0°F24.4°C 70.1°F21.2°C 82% 0.9 mph E1.4 kmh E 6.0 mph9.7 kmh 29.92 in1013.2 mb 0.00 in0.0 mm 0.00 in0.0 mm 0.00 in0.0 mm
05:20 AM 76.0°F24.4°C 70.1°F21.2°C 82% 3.4 mph ESE5.5 kmh ESE 6.0 mph9.7 kmh 29.92 in1013.2 mb 0.00 in0.0 mm 0.00 in0.0 mm 0.00 in0.0 mm
05:15 AM 76.0°F24.4°C 70.1°F21.2°C 82% 6.0 mph ESE9.7 kmh ESE 6.0 mph9.7 kmh 29.92 in1013.2 mb 0.00 in0.0 mm 0.00 in0.0 mm 0.00 in0.0 mm
05:10 AM 75.8°F24.3°C 69.6°F20.9°C 81% 0.7 mph E1.1 kmh E 3.1 mph5.0 kmh 29.92 in1013.2 mb 0.00 in0.0 mm 0.00 in0.0 mm 0.00 in0.0 mm
05:05 AM 75.8°F24.3°C 69.6°F20.9°C 81% 2.3 mph ESE3.7 kmh ESE 3.1 mph5.0 kmh 29.93 in1013.5 mb 0.00 in0.0 mm 0.00 in0.0 mm 0.00 in0.0 mm
05:00 AM 75.6°F24.2°C 69.4°F20.8°C 81% 1.8 mph E2.9 kmh E 1.8 mph2.9 kmh 29.92 in1013.2 mb 0.00 in0.0 mm 0.00 in0.0 mm 0.00 in0.0 mm
04:55 AM 75.6°F24.2°C 69.4°F20.8°C 81% Calm Calm 1.1 mph1.8 kmh 29.92 in1013.2 mb 0.00 in0.0 mm 0.00 in0.0 mm 0.00 in0.0 mm
04:50 AM 75.6°F24.2°C 69.1°F20.6°C 80% 0.4 mph E0.6 kmh E 1.1 mph1.8 kmh 29.92 in1013.2 mb 0.00 in0.0 mm 0.00 in0.0 mm 0.00 in0.0 mm
04:45 AM 75.8°F24.3°C 69.2°F20.7°C 80% 0.6 mph E1.0 kmh E 1.1 mph1.8 kmh 29.92 in1013.2 mb 0.00 in0.0 mm 0.00 in0.0 mm 0.00 in0.0 mm
04:40 AM 75.8°F24.3°C 68.9°F20.5°C 79% 0.9 mph E1.4 kmh E 1.1 mph1.8 kmh 29.92 in1013.2 mb 0.00 in0.0 mm 0.00 in0.0 mm 0.00 in0.0 mm
04:35 AM 76.0°F24.4°C 69.0°F20.6°C 79% 1.1 mph E1.8 kmh E 1.8 mph2.9 kmh 29.92 in1013.2 mb 0.00 in0.0 mm 0.00 in0.0 mm 0.00 in0.0 mm
04:30 AM 76.0°F24.4°C 69.0°F20.6°C 79% 0.2 mph NE0.3 kmh NE 1.8 mph2.9 kmh 29.92 in1013.2 mb 0.00 in0.0 mm 0.00 in0.0 mm 0.00 in0.0 mm
04:25 AM 76.1°F24.5°C 69.2°F20.7°C 79% 1.8 mph ESE2.9 kmh ESE 1.8 mph2.9 kmh 29.92 in1013.2 mb 0.00 in0.0 mm 0.00 in0.0 mm 0.00 in0.0 mm
04:20 AM 76.1°F24.5°C 69.2°F20.7°C 79% 0.4 mph ESE0.6 kmh ESE 0.7 mph1.1 kmh 29.92 in1013.2 mb 0.00 in0.0 mm 0.00 in0.0 mm 0.00 in0.0 mm
04:15 AM 76.3°F24.6°C 69.4°F20.8°C 79% 0.7 mph ENE1.1 kmh ENE 1.6 mph2.6 kmh 29.92 in1013.2 mb 0.00 in0.0 mm 0.00 in0.0 mm 0.00 in0.0 mm
04:10 AM 76.3°F24.6°C 68.9°F20.5°C 78% 0.2 mph ESE0.3 kmh ESE 1.6 mph2.6 kmh 29.92 in1013.2 mb 0.00 in0.0 mm 0.00 in0.0 mm 0.00 in0.0 mm
04:05 AM 76.5°F24.7°C 69.1°F20.6°C 78% 1.5 mph ENE2.4 kmh ENE 1.6 mph2.6 kmh 29.92 in1013.2 mb 0.00 in0.0 mm 0.00 in0.0 mm 0.00 in0.0 mm
03:59 AM 76.7°F24.8°C 69.3°F20.7°C 78% 0.5 mph E0.8 kmh E 2.5 mph4.0 kmh 29.92 in1013.2 mb 0.00 in0.0 mm 0.00 in0.0 mm 0.00 in0.0 mm
03:55 AM 76.7°F24.8°C 69.3°F20.7°C 78% 0.2 mph ENE0.3 kmh ENE 2.5 mph4.0 kmh 29.92 in1013.2 mb 0.00 in0.0 mm 0.00 in0.0 mm 0.00 in0.0 mm
03:49 AM 76.9°F24.9°C 69.5°F20.8°C 78% 0.9 mph ESE1.4 kmh ESE 2.2 mph3.5 kmh 29.92 in1013.2 mb 0.00 in0.0 mm 0.00 in0.0 mm 0.00 in0.0 mm
03:44 AM 77.0°F25.0°C 69.7°F20.9°C 78% 0.5 mph SE0.8 kmh SE 2.2 mph3.5 kmh 29.92 in1013.2 mb 0.00 in0.0 mm 0.00 in0.0 mm 0.00 in0.0 mm
03:39 AM 77.0°F25.0°C 69.7°F20.9°C 78% 1.1 mph SE1.8 kmh SE 2.2 mph3.5 kmh 29.92 in1013.2 mb 0.00 in0.0 mm 0.00 in0.0 mm 0.00 in0.0 mm
03:12 AM 77.6°F25.3°C 69.4°F20.8°C 76% 0.7 mph ESE1.1 kmh ESE 1.1 mph1.8 kmh 29.92 in1013.2 mb 0.00 in0.0 mm 0.00 in0.0 mm 0.00 in0.0 mm
03:07 AM 77.6°F25.3°C 69.0°F20.6°C 75% 0.3 mph ESE0.5 kmh ESE 1.8 mph2.9 kmh 29.92 in1013.2 mb 0.00 in0.0 mm 0.00 in0.0 mm 0.00 in0.0 mm
03:02 AM 77.8°F25.4°C 69.2°F20.7°C 75% 1.6 mph ESE2.6 kmh ESE 1.8 mph2.9 kmh 29.92 in1013.2 mb 0.00 in0.0 mm 0.00 in0.0 mm 0.00 in0.0 mm
02:57 AM 77.8°F25.4°C 69.2°F20.7°C 75% 0.9 mph SE1.4 kmh SE 4.7 mph7.6 kmh 29.92 in1013.2 mb 0.00 in0.0 mm 0.00 in0.0 mm 0.00 in0.0 mm
02:52 AM 78.1°F25.6°C 69.5°F20.8°C 75% 0.4 mph ENE0.6 kmh ENE 4.7 mph7.6 kmh 29.91 in1012.9 mb 0.00 in0.0 mm 0.00 in0.0 mm 0.00 in0.0 mm
02:47 AM 78.1°F25.6°C 69.1°F20.6°C 74% 4.7 mph ESE7.6 kmh ESE 4.7 mph7.6 kmh 29.91 in1012.9 mb 0.00 in0.0 mm 0.00 in0.0 mm 0.00 in0.0 mm
02:42 AM 78.3°F25.7°C 69.3°F20.7°C 74% 1.1 mph ESE1.8 kmh ESE 1.1 mph1.8 kmh 29.91 in1012.9 mb 0.00 in0.0 mm 0.00 in0.0 mm 0.00 in0.0 mm
02:37 AM 78.5°F25.8°C 69.5°F20.8°C 74% 0.7 mph SE1.1 kmh SE 1.3 mph2.1 kmh 29.91 in1012.9 mb 0.00 in0.0 mm 0.00 in0.0 mm 0.00 in0.0 mm
02:32 AM 78.5°F25.8°C 69.5°F20.8°C 74% 0.4 mph E0.6 kmh E 1.8 mph2.9 kmh 29.91 in1012.9 mb 0.00 in0.0 mm 0.00 in0.0 mm 0.00 in0.0 mm
02:27 AM 78.5°F25.8°C 69.0°F20.6°C 73% 0.4 mph ENE0.6 kmh ENE 3.6 mph5.8 kmh 29.92 in1013.2 mb 0.00 in0.0 mm 0.00 in0.0 mm 0.00 in0.0 mm
02:22 AM 78.7°F25.9°C 69.2°F20.7°C 73% 1.9 mph NE3.1 kmh NE 4.5 mph7.2 kmh 29.92 in1013.2 mb 0.00 in0.0 mm 0.00 in0.0 mm 0.00 in0.0 mm
02:17 AM 78.8°F26.0°C 69.4°F20.8°C 73% 4.1 mph NE6.6 kmh NE 4.5 mph7.2 kmh 29.91 in1012.9 mb 0.00 in0.0 mm 0.00 in0.0 mm 0.00 in0.0 mm
02:12 AM 79.0°F26.1°C 69.6°F20.9°C 73% 2.9 mph NNE4.7 kmh NNE 3.8 mph6.1 kmh 29.91 in1012.9 mb 0.00 in0.0 mm 0.00 in0.0 mm 0.00 in0.0 mm
02:07 AM 79.2°F26.2°C 69.4°F20.8°C 72% 0.9 mph NE1.4 kmh NE 3.8 mph6.1 kmh 29.92 in1013.2 mb 0.00 in0.0 mm 0.00 in0.0 mm 0.00 in0.0 mm
02:02 AM 79.2°F26.2°C 69.4°F20.8°C 72% 3.8 mph E6.1 kmh E 3.8 mph6.1 kmh 29.92 in1013.2 mb 0.00 in0.0 mm 0.00 in0.0 mm 0.00 in0.0 mm
01:57 AM 79.4°F26.3°C 69.6°F20.9°C 72% 2.0 mph E3.2 kmh E 6.0 mph9.7 kmh 29.91 in1012.9 mb 0.00 in0.0 mm 0.00 in0.0 mm 0.00 in0.0 mm
01:52 AM 79.4°F26.3°C 69.6°F20.9°C 72% 3.3 mph SE5.3 kmh SE 6.0 mph9.7 kmh 29.92 in1013.2 mb 0.00 in0.0 mm 0.00 in0.0 mm 0.00 in0.0 mm
01:47 AM 79.6°F26.4°C 69.3°F20.7°C 71% 6.0 mph NE9.7 kmh NE 6.0 mph9.7 kmh 29.92 in1013.2 mb 0.00 in0.0 mm 0.00 in0.0 mm 0.00 in0.0 mm
01:42 AM 79.7°F26.5°C 69.5°F20.8°C 71% 2.8 mph SE4.5 kmh SE 4.0 mph6.4 kmh 29.92 in1013.2 mb 0.00 in0.0 mm 0.00 in0.0 mm 0.00 in0.0 mm
01:37 AM 79.9°F26.6°C 69.7°F20.9°C 71% 2.5 mph NE4.0 kmh NE 4.0 mph6.4 kmh 29.92 in1013.2 mb 0.00 in0.0 mm 0.00 in0.0 mm 0.00 in0.0 mm
01:32 AM 80.1°F26.7°C 69.5°F20.8°C 70% 3.2 mph NE5.1 kmh NE 4.0 mph6.4 kmh 29.92 in1013.2 mb 0.00 in0.0 mm 0.00 in0.0 mm 0.00 in0.0 mm
01:27 AM 80.3°F26.8°C 69.7°F20.9°C 70% 2.2 mph NE3.5 kmh NE 2.5 mph4.0 kmh 29.92 in1013.2 mb 0.00 in0.0 mm 0.00 in0.0 mm 0.00 in0.0 mm
01:22 AM 80.3°F26.8°C 69.7°F20.9°C 70% 2.4 mph NE3.9 kmh NE 3.4 mph5.5 kmh 29.92 in1013.2 mb 0.00 in0.0 mm 0.00 in0.0 mm 0.00 in0.0 mm
01:17 AM 80.5°F26.9°C 69.8°F21.0°C 70% 3.1 mph ENE5.0 kmh ENE 6.7 mph10.8 kmh 29.92 in1013.2 mb 0.00 in0.0 mm 0.00 in0.0 mm 0.00 in0.0 mm
01:12 AM 80.5°F26.9°C 69.4°F20.8°C 69% 6.3 mph E10.1 kmh E 6.7 mph10.8 kmh 29.92 in1013.2 mb 0.00 in0.0 mm 0.00 in0.0 mm 0.00 in0.0 mm
01:07 AM 80.6°F27.0°C 69.6°F20.9°C 69% 4.3 mph NNE6.9 kmh NNE 6.5 mph10.5 kmh 29.92 in1013.2 mb 0.00 in0.0 mm 0.00 in0.0 mm 0.00 in0.0 mm
01:02 AM 80.8°F27.1°C 69.8°F21.0°C 69% 3.8 mph NE6.1 kmh NE 6.5 mph10.5 kmh 29.92 in1013.2 mb 0.00 in0.0 mm 0.00 in0.0 mm 0.00 in0.0 mm
12:57 AM 81.0°F27.2°C 69.5°F20.8°C 68% 2.0 mph NE3.2 kmh NE 5.4 mph8.7 kmh 29.92 in1013.2 mb 0.00 in0.0 mm 0.00 in0.0 mm 0.00 in0.0 mm
12:52 AM 81.2°F27.3°C 69.6°F20.9°C 68% 4.7 mph E7.6 kmh E 5.4 mph8.7 kmh 29.92 in1013.2 mb 0.00 in0.0 mm 0.00 in0.0 mm 0.00 in0.0 mm
12:47 AM 81.4°F27.4°C 69.8°F21.0°C 68% 5.1 mph NE8.2 kmh NE 5.8 mph9.3 kmh 29.92 in1013.2 mb 0.00 in0.0 mm 0.00 in0.0 mm 0.00 in0.0 mm
12:42 AM 81.4°F27.4°C 69.3°F20.7°C 67% 4.9 mph NE7.9 kmh NE 5.8 mph9.3 kmh 29.92 in1013.2 mb 0.00 in0.0 mm 0.00 in0.0 mm 0.00 in0.0 mm
12:37 AM 81.5°F27.5°C 69.5°F20.8°C 67% 5.4 mph NE8.7 kmh NE 6.7 mph10.8 kmh 29.92 in1013.2 mb 0.00 in0.0 mm 0.00 in0.0 mm 0.00 in0.0 mm
12:32 AM 81.7°F27.6°C 69.2°F20.7°C 66% 4.7 mph NE7.6 kmh NE 6.7 mph10.8 kmh 29.92 in1013.2 mb 0.00 in0.0 mm 0.00 in0.0 mm 0.00 in0.0 mm
12:27 AM 81.9°F27.7°C 69.4°F20.8°C 66% 6.7 mph ENE10.8 kmh ENE 6.7 mph10.8 kmh 29.92 in1013.2 mb 0.00 in0.0 mm 0.00 in0.0 mm 0.00 in0.0 mm
12:22 AM 82.1°F27.8°C 69.5°F20.8°C 66% 1.2 mph NE1.9 kmh NE 3.8 mph6.1 kmh 29.91 in1012.9 mb 0.00 in0.0 mm 0.00 in0.0 mm 0.00 in0.0 mm
12:17 AM 82.1°F27.8°C 69.5°F20.8°C 66% 3.7 mph ESE6.0 kmh ESE 3.8 mph6.1 kmh 29.92 in1013.2 mb 0.00 in0.0 mm 0.00 in0.0 mm 0.00 in0.0 mm
12:12 AM 82.4°F28.0°C 69.4°F20.8°C 65% 3.4 mph E5.5 kmh E 3.4 mph5.5 kmh 29.91 in1012.9 mb 0.00 in0.0 mm 0.00 in0.0 mm 0.00 in0.0 mm
12:07 AM 82.4°F28.0°C 69.4°F20.8°C 65% 3.1 mph NNE5.0 kmh NNE 3.1 mph5.0 kmh 29.91 in1012.9 mb 0.00 in0.0 mm 0.00 in0.0 mm 0.00 in0.0 mm
12:02 AM 82.4°F28.0°C 68.9°F20.5°C 64% 2.7 mph E4.3 kmh E 6.9 mph11.1 kmh 29.91 in1012.9 mb 0.00 in0.0 mm 0.00 in0.0 mm 0.00 in0.0 mm